Stunt Ranch Reserve, Santa Monica Mtns, California Weather observations

Data are for 10 minute period ending at time listed.
 Day   Time   Solar   Ave.   Ave.  Ave.  Vector  Max.   Baro.   Total    
  of    of     Rad.   Air    Rel.  Wind   Wind   Wind  Press.  Precip.   
Year   Day            Temp.  Hum.  Speed  Dir.   Gust                    
2017   (PST)  Kw/m2    F      %     mph   deg.    mph    mb.     in.     
-------------------------------------------------------------------------
  58    8:10   0.07   46.1    86    1.9   125     2.7   965.1    0.00 
  58    8:20   0.08   46.9    84    0.9   145     2.5   965.1    0.00 
  58    8:30   0.06   47.9    82    2.5   278     5.0   965.5    0.00 
  58    8:40   0.06   47.7    84    2.7   258     5.3   965.5    0.00 
  58    8:50   0.07   47.5    85    1.2   253     2.7   965.5    0.00 
  58    9:00   0.10   47.7    84    0.3   228     1.4   965.5    0.00 
  58    9:10   0.13   48.4    80    0.2   109     1.2   965.5    0.00 
  58    9:20   0.16   49.4    78    0.7   322     2.8   965.5    0.00 
  58    9:30   0.16   50.1    79    1.1   305     3.0   965.5    0.00 
  58    9:40   0.14   50.6    76    1.1   298     2.7   965.5    0.00 
  58    9:50   0.13   50.6    74    1.2   270     2.6   965.8    0.00 
  58   10:00   0.13   50.5    74    1.1   257     3.1   965.8    0.00 
  58   10:10   0.14   50.9    74    1.2   256     3.8   965.8    0.00 
  58   10:20   0.14   51.2    74    2.2   263     4.4   966.1    0.00 
  58   10:30   0.13   51.3    73    1.1   276     4.2   966.1    0.00 
  58   10:40   0.18   51.4    70    0.8   301     2.4   966.1    0.00 
  58   10:50   0.22   51.7    70    1.8   316     4.0   966.1    0.00 
  58   11:00   0.21   52.2    71    1.9   298     3.7   966.1    0.00 
  58   11:10   0.20   52.7    72    1.9   286     4.5   966.1    0.00 
  58   11:20   0.19   53.5    70    2.5   281     5.3   965.8    0.00 
  58   11:30   0.18   53.3    71    2.8   265     5.6   965.8    0.00 
  58   11:40   0.13   53.3    71    2.7   272     5.7   965.8    0.00 
  58   11:50   0.11   52.4    72    1.1   316     2.3   965.8    0.00 
  58   12:00   0.16   52.6    72    2.0   292     5.2   965.8    0.00 
  58   12:10   0.19   53.4    70    2.3   286     5.9   965.8    0.00 
  58   12:20   0.29   54.1    68    2.3   309     4.6   965.5    0.00 
  58   12:30   0.26   54.5    68    2.4   311     5.4   965.5    0.00 
  58   12:40   0.21   54.4    69    2.0   314     5.2   965.5    0.00 
  58   12:50   0.25   54.7    68    1.9   288     5.3   965.1    0.00 
  58   13:00   0.24   54.9    68    1.5   297     4.7   964.8    0.00 
  58   13:10   0.28   55.1    69    1.7   293     5.4   964.8    0.00 
  58   13:20   0.25   55.1    69    2.3   298     6.0   964.4    0.00 
  58   13:30   0.23   54.8    71    2.4   321     6.0   964.4    0.00 
  58   13:40   0.23   54.2    70    1.0   292     3.7   964.1    0.00 
  58   13:50   0.23   53.7    72    1.1   292     3.6   964.4    0.00 
  58   14:00   0.21   54.0    72    1.3   312     5.5   964.4    0.00 
  58   14:10   0.18   53.5    73    2.0   312     4.7   964.1    0.00 
  58   14:20   0.18   53.9    74    1.8   293     5.5   964.1    0.00 
  58   14:30   0.18   53.7    73    2.0   289     4.8   964.1    0.00 
  58   14:40   0.17   53.9    72    2.3   268     4.9   963.8    0.00 
  58   14:50   0.15   53.6    73    2.1   277     4.8   963.4    0.00 
  58   15:00   0.19   53.5    72    1.7   302     3.7   963.1    0.00 
  58   15:10   0.18   54.1    72    2.3   277     5.0   963.4    0.00 
  58   15:20   0.26   54.0    72    2.0   277     3.6   963.4    0.00 
  58   15:30   0.16   54.8    70    1.4   297     4.7   963.8    0.00 
  58   15:40   0.12   54.6    71    1.3   295     5.6   963.8    0.00 
  58   15:50   0.10   54.5    70    2.3   281     5.8   963.8    0.00 
  58   16:00   0.10   53.9    70    2.7   280     5.0   963.8    0.00 
  58   16:10   0.08   53.6    69    1.7   281     4.2   963.8    0.00 
  58   16:20   0.07   53.3    71    3.2   272     5.8   963.8    0.00 
  58   16:30   0.08   53.2    72    1.6   277     4.4   963.8    0.00 
  58   16:40   0.06   53.1    71    2.0   261     4.5   963.8    0.00 
  58   16:50   0.05   52.5    72    2.3   265     3.9   963.8    0.00 
  58   17:00   0.04   52.1    72    2.2   262     4.2   963.8    0.00 
  58   17:10   0.04   51.9    73    1.3   268     2.9   963.8    0.00 
  58   17:20   0.03   51.8    73    1.2   267     3.5   963.8    0.00 
  58   17:30   0.03   51.6    75    0.6   253     1.9   963.8    0.00 
  58   17:40   0.03   51.1    75    1.7   222     2.6   963.8    0.00 
  58   17:50   0.01   50.5    75    1.9   234     3.2   963.8    0.00 
  58   18:00   0.01   50.1    76    1.9   234     2.8   963.8    0.00 
  58   18:10   0.00   49.5    78    2.0   231     3.1   963.8    0.00 
  58   18:20   0.00   48.9    80    2.5   220     3.5   963.4    0.00 
  58   18:30   0.00   48.0    83    2.1   269     4.2   963.4    0.00 
  58   18:40   0.00   48.1    82    2.1   250     5.6   963.4    0.00 
  58   18:50   0.00   47.7    84    0.2   297     3.4   963.4    0.00 
  58   19:00   0.00   47.4    86    1.9   284     5.4   963.4    0.00 
  58   19:10   0.00   47.9    86    3.6   263     6.0   963.4    0.00 
  58   19:20   0.00   48.3    85    3.5   245     7.4   963.4    0.00 
  58   19:30   0.00   48.3    84    2.9   225     5.2   963.8    0.00 
  58   19:40   0.00   47.9    85    2.9   262     5.3   963.8    0.00 
  58   19:50   0.00   47.4    85    1.8   252     4.6   963.8    0.00 
  58   20:00   0.00   46.6    86    2.9   231     4.3   964.1    0.00 
  58   20:10   0.00   46.1    86    3.0   212     4.4   963.8    0.00 
  58   20:20   0.00   45.5    88    3.2   217     5.0   963.8    0.00 
  58   20:30   0.00   45.6    88    3.6   213     5.0   963.8    0.00 
  58   20:40   0.00   45.6    88    3.4   203     5.0   964.1    0.00 
  58   20:50   0.00   46.0    88    2.7   206     4.5   964.1    0.00 
  58   21:00   0.00   46.3    86    1.7   213     3.3   964.1    0.00 
  58   21:10   0.00   46.1    86    2.2   221     3.1   964.1    0.00 
  58   21:20   0.00   45.6    88    2.8   219     5.0   964.1    0.00 
  58   21:30   0.00   45.5    88    3.3   230     6.1   964.1    0.00 
  58   21:40   0.00   45.5    87    3.6   213     5.3   964.1    0.00 
  58   21:50   0.00   45.2    86    2.7   220     4.0   964.1    0.00 
  58   22:00   0.00   44.9    86    2.2   212     3.7   964.1    0.00 
  58   22:10   0.00   45.0    85    1.3   230     3.1   964.1    0.00 
  58   22:20   0.00   45.0    86    2.3   215     3.6   964.1    0.00 
  58   22:30   0.00   45.1    86    2.3   208     3.7   964.1    0.00 
  58   22:40   0.00   45.0    86    1.7   214     2.9   964.1    0.00 
  58   22:50   0.00   44.9    87    2.5   210     4.2   964.4    0.00 
  58   23:00   0.00   44.7    86    2.0   239     4.4   964.4    0.00 
  58   23:10   0.00   44.0    87    1.5   226     3.1   964.4    0.00 
  58   23:20   0.00   44.6    85    0.9   254     2.3   964.4    0.00 
  58   23:30   0.00   43.4    88    1.1   117     3.4   964.4    0.00 
  58   23:40   0.00   43.6    88    0.5   344     1.5   964.4    0.00 
  58   23:50   0.00   43.8    88    1.3   171     2.3   964.4    0.00 
  59    0:00   0.00   44.2    86    2.1   192     3.7   964.4    0.00 
  59    0:10   0.00   44.2    86    1.9   195     3.5   964.4    0.00 
  59    0:20   0.00   44.2    86    0.4   237     1.6   964.4    0.00 
  59    0:30   0.00   43.8    87    1.6   184     3.1   964.4    0.00 
  59    0:40   0.00   43.3    86    1.8   177     4.6   964.4    0.00 
  59    0:50   0.00   43.4    82    3.1   164     5.0   964.8    0.00 
  59    1:00   0.00   44.7    71    0.9   152     3.8   964.8    0.00 
  59    1:10   0.00   44.6    69    2.8   180     4.6   964.8    0.00 
  59    1:20   0.00   43.9    69    1.4   141     3.7   965.1    0.00 
  59    1:30   0.00   43.8    69    1.9   194     4.1   965.1    0.00 
  59    1:40   0.00   43.2    70    5.4   150     8.0   965.1    0.00 
  59    1:50   0.00   44.1    66    6.7   143     8.8   965.1    0.00 
  59    2:00   0.00   44.9    64    5.7   141     7.8   965.1    0.00 
  59    2:10   0.00   44.7    65    4.9   143     7.7   965.1    0.00 
  59    2:20   0.00   44.7    65    5.0   131     8.5   965.1    0.00 
  59    2:30   0.00   44.3    67    2.6   125     6.6   965.5    0.00 
  59    2:40   0.00   44.2    67    3.9   130     7.6   965.5    0.00 
  59    2:50   0.00   44.8    65    4.9   132     7.5   965.5    0.00 
  59    3:00   0.00   44.7    66    6.6   135     8.8   965.5    0.00 
  59    3:10   0.00   44.3    67    6.0   139     8.3   965.5    0.00 
  59    3:20   0.00   44.7    65    6.0   141     8.7   965.5    0.00 
  59    3:30   0.00   44.5    65    4.1   142     7.1   965.8    0.00 
  59    3:40   0.00   43.9    67    4.0   139     6.4   965.8    0.00 
  59    3:50   0.00   43.6    67    4.5   133     6.7   965.8    0.00 
  59    4:00   0.00   43.9    65    5.3   132     7.6   965.8    0.00 
  59    4:10   0.00   43.6    66    5.3   135     7.3   966.1    0.00 
  59    4:20   0.00   43.7    66    4.9   125     7.1   966.1    0.00 
  59    4:30   0.00   43.4    66    5.1   126     7.1   966.5    0.00 
  59    4:40   0.00   43.6    64    3.7   135     6.7   966.5    0.00 
  59    4:50   0.00   43.5    64    3.1   145     5.7   966.5    0.00 
  59    5:00   0.00   42.9    66    3.5   148     7.7   966.8    0.00 
  59    5:10   0.00   42.8    65    4.5   145     7.3   966.8    0.00 
  59    5:20   0.00   43.0    64    4.2   151     6.9   967.2    0.00 
  59    5:30   0.00   43.0    64    3.5   152     5.6   967.2    0.00 
  59    5:40   0.00   42.8    64    3.8   163     7.3   967.2    0.00 
  59    5:50   0.00   42.9    64    2.8   172     4.5   967.5    0.00 
  59    6:00   0.00   42.7    64    4.4   129     6.8   967.5    0.00 
  59    6:10   0.00   42.8    62    4.3   128     6.9   967.5    0.00 
  59    6:20   0.00   43.6    57    5.9   110    10.2   967.8    0.00 
  59    6:30   0.01   43.8    55    5.6   106     9.5   968.2    0.00 
  59    6:40   0.01   43.9    54    4.4   131     7.7   968.5    0.00 
  59    6:50   0.01   43.6    55    3.8   129     6.8   968.5    0.00 
  59    7:00   0.02   43.4    56    4.0   143     6.4   968.8    0.00 
  59    7:10   0.03   43.4    55    5.2   141     7.2   969.2    0.00 
  59    7:20   0.03   43.9    54    5.4   143     7.2   969.2    0.00 
  59    7:30   0.12   44.6    53    4.3   141     7.6   969.5    0.00 
  59    7:40   0.20   47.9    49    3.1   120     4.7   969.9    0.00 
  59    7:50   0.23   49.0    48    2.0   111     3.6   970.2    0.00 
  59    8:00   0.27   49.9    46    2.4   113     3.8   970.5    0.00 

Return to Stunt Ranch Reserve graphs page.


Western Regional Climate Center,wrcc@dri.edu